createdAt,value
2016-02-20T00:00:49.433Z,22.3
2016-02-20T00:01:47.451Z,22.3
2016-02-20T00:02:45.595Z,22.3
2016-02-20T00:03:43.597Z,22.3
2016-02-20T00:04:44.553Z,22.3
2016-02-20T00:05:42.850Z,22.3
2016-02-20T00:06:41.228Z,22.3
2016-02-20T00:07:39.137Z,22.3
2016-02-20T00:08:37.530Z,22.2
2016-02-20T00:09:35.439Z,22.3
2016-02-20T00:10:33.724Z,22.3
2016-02-20T00:11:31.992Z,22.3
2016-02-20T00:12:30.275Z,22.3
2016-02-20T00:13:28.622Z,22.3
2016-02-20T00:14:29.625Z,22.3
2016-02-20T00:15:28.002Z,22.3
2016-02-20T00:16:26.177Z,22.2
2016-02-20T00:17:24.446Z,22.3
2016-02-20T00:18:22.730Z,22.3
2016-02-20T00:19:21.123Z,22.2
2016-02-20T00:20:19.282Z,22.3
2016-02-20T00:21:17.691Z,22.2
2016-02-20T00:22:15.850Z,22.2
2016-02-20T00:23:14.180Z,22.2
2016-02-20T00:24:15.183Z,22.2
2016-02-20T00:25:13.467Z,22.3
2016-02-20T00:26:11.860Z,22.2
2016-02-20T00:27:10.019Z,22.3
2016-02-20T00:28:08.288Z,22.2
2016-02-20T00:29:06.696Z,22.2
2016-02-20T00:30:04.965Z,22.2
2016-02-20T00:31:03.129Z,22.2
2016-02-20T00:32:01.398Z,22.3
2016-02-20T00:32:59.869Z,22.3
2016-02-20T00:34:00.747Z,22.2
2016-02-20T00:34:59.015Z,22.2
2016-02-20T00:35:57.298Z,22.3
2016-02-20T00:36:55.691Z,22.3
2016-02-20T00:37:53.847Z,22.3
2016-02-20T00:38:52.241Z,22.3
2016-02-20T00:39:50.400Z,22.3
2016-02-20T00:40:48.825Z,22.3
2016-02-20T00:41:47.218Z,22.3
2016-02-20T00:42:45.564Z,22.3
2016-02-20T00:43:46.692Z,22.3
2016-02-20T00:44:45.086Z,22.3
2016-02-20T00:45:43.369Z,22.3
2016-02-20T00:46:41.669Z,22.3
2016-02-20T00:47:40.062Z,22.4
2016-02-20T00:48:38.347Z,22.4
2016-02-20T00:49:36.740Z,22.4
2016-02-20T00:50:35.023Z,22.4
2016-02-20T00:51:33.417Z,22.5
2016-02-20T00:52:31.795Z,22.4
2016-02-20T00:53:32.640Z,22.5
2016-02-20T00:54:30.909Z,22.4
2016-02-20T00:55:29.194Z,22.4
2016-02-20T00:56:27.477Z,22.4
2016-02-20T00:57:25.746Z,22.4
2016-02-20T00:58:24.029Z,22.5
2016-02-20T00:59:22.314Z,22.5
2016-02-20T01:00:20.581Z,22.5
2016-02-20T01:01:18.600Z,22.5
2016-02-20T01:02:17.056Z,22.5
2016-02-20T01:03:18.105Z,22.5
2016-02-20T01:04:15.968Z,22.5
2016-02-20T01:05:14.111Z,22.5
2016-02-20T01:06:12.019Z,22.5
2016-02-20T01:07:10.039Z,22.5
2016-02-20T01:08:08.181Z,22.5
2016-02-20T01:09:06.090Z,22.5
2016-02-20T01:10:04.109Z,22.5
2016-02-20T01:11:02.127Z,22.5
2016-02-20T01:12:00.333Z,22.5
2016-02-20T01:13:01.227Z,22.5
2016-02-20T01:13:59.245Z,22.5
2016-02-20T01:14:57.388Z,22.5
2016-02-20T01:15:55.278Z,22.5
2016-02-20T01:16:53.312Z,22.5
2016-02-20T01:17:51.330Z,22.5
2016-02-20T01:18:49.366Z,22.5
2016-02-20T01:19:47.493Z,22.5
2016-02-20T01:20:45.541Z,22.4
2016-02-20T01:21:43.487Z,22.4
2016-02-20T01:22:44.615Z,22.4
2016-02-20T01:23:42.508Z,22.4
2016-02-20T01:24:40.574Z,22.4
2016-02-20T01:25:38.701Z,22.4
2016-02-20T01:26:36.719Z,22.4
2016-02-20T01:27:34.612Z,22.4
2016-02-20T01:28:32.631Z,22.4
2016-02-20T01:29:30.915Z,22.3
2016-02-20T01:30:29.323Z,22.4
2016-02-20T01:31:27.529Z,22.4
2016-02-20T01:32:28.532Z,22.3
2016-02-20T01:33:26.800Z,22.3
2016-02-20T01:34:25.069Z,22.3
2016-02-20T01:35:23.352Z,22.3
2016-02-20T01:36:21.652Z,22.3
2016-02-20T01:37:19.905Z,22.3
2016-02-20T01:38:18.189Z,22.3
2016-02-20T01:39:16.473Z,22.3
2016-02-20T01:40:14.742Z,22.3
2016-02-20T01:41:13.228Z,22.3
2016-02-20T01:42:14.106Z,22.3
2016-02-20T01:43:12.468Z,22.3
2016-02-20T01:44:10.643Z,22.3
2016-02-20T01:45:08.910Z,22.3
2016-02-20T01:46:07.210Z,22.3
2016-02-20T01:47:05.604Z,22.3
2016-02-20T01:48:03.857Z,22.3
2016-02-20T01:49:02.140Z,22.3
2016-02-20T01:50:00.299Z,22.3
2016-02-20T01:50:58.627Z,22.3
2016-02-20T01:51:59.757Z,22.2
2016-02-20T01:52:58.023Z,22.3
2016-02-20T01:53:56.182Z,22.2
2016-02-20T01:54:54.466Z,22.2
2016-02-20T01:55:52.766Z,22.2
2016-02-20T01:56:51.050Z,22.2
2016-02-20T01:57:49.303Z,22.2
2016-02-20T01:58:47.571Z,22.2
2016-02-20T01:59:45.979Z,22.2
2016-02-20T02:00:44.342Z,22.2
2016-02-20T02:01:45.313Z,22.2
2016-02-20T02:02:43.504Z,22.2
2016-02-20T02:03:42.006Z,22.2
2016-02-20T02:04:40.662Z,22.2
2016-02-20T02:05:39.072Z,22.2
2016-02-20T02:06:37.715Z,22.2
2016-02-20T02:07:36.123Z,22.2
2016-02-20T02:08:34.672Z,22.2
2016-02-20T02:09:33.316Z,22.2
2016-02-20T02:10:31.772Z,22.2
2016-02-20T02:11:32.900Z,22.2
2016-02-20T02:12:31.309Z,22.2
2016-02-20T02:13:29.968Z,22.2
2016-02-20T02:14:28.377Z,22.2
2016-02-20T02:15:27.020Z,22.2
2016-02-20T02:16:25.429Z,22.2
2016-02-20T02:17:24.088Z,22.1
2016-02-20T02:18:22.496Z,22.2
2016-02-20T02:19:21.030Z,22.1
2016-02-20T02:20:19.612Z,22.1
2016-02-20T02:21:20.630Z,22.1
2016-02-20T02:22:19.163Z,22.2
2016-02-20T02:23:17.682Z,22.2
2016-02-20T02:24:16.107Z,22.1
2016-02-20T02:25:14.484Z,22.1
2016-02-20T02:26:12.768Z,22.2
2016-02-20T02:27:11.302Z,22.1
2016-02-20T02:28:09.836Z,22.1
2016-02-20T02:29:08.495Z,22.1
2016-02-20T02:30:07.092Z,22.1
2016-02-20T02:31:07.953Z,22.1
2016-02-20T02:32:06.487Z,22.1
2016-02-20T02:33:05.022Z,22.1
2016-02-20T02:34:03.556Z,22.1
2016-02-20T02:35:02.198Z,22.1
2016-02-20T02:36:00.730Z,22.1
2016-02-20T02:36:59.264Z,22.1
2016-02-20T02:37:57.672Z,22.1
2016-02-20T02:38:56.238Z,22.1
2016-02-20T02:39:54.897Z,22.1
2016-02-20T02:40:55.790Z,22.1
2016-02-20T02:41:54.324Z,22.1
2016-02-20T02:42:52.858Z,22.1
2016-02-20T02:43:51.392Z,22.1
2016-02-20T02:44:49.927Z,22.1
2016-02-20T02:45:48.444Z,22.1
2016-02-20T02:46:46.994Z,22.1
2016-02-20T02:47:45.621Z,22.1
2016-02-20T02:48:44.030Z,22.1
2016-02-20T02:49:42.643Z,22.1
2016-02-20T02:50:43.770Z,22.1
2016-02-20T02:51:42.179Z,22.1
2016-02-20T02:52:40.823Z,22.1
2016-02-20T02:53:39.215Z,22.1
2016-02-20T02:54:37.750Z,22.1
2016-02-20T02:55:36.284Z,22.1
2016-02-20T02:56:34.818Z,22.1
2016-02-20T02:57:33.337Z,22.1
2016-02-20T02:58:31.995Z,22.1
2016-02-20T02:59:30.576Z,22.1
2016-02-20T03:00:31.595Z,22.1
2016-02-20T03:01:30.004Z,22.1
2016-02-20T03:02:28.521Z,22.1
2016-02-20T03:03:27.055Z,22.1
2016-02-20T03:04:25.714Z,22.1
2016-02-20T03:05:24.123Z,22.1
2016-02-20T03:06:22.656Z,22.1
2016-02-20T03:07:21.176Z,22.1
2016-02-20T03:08:19.850Z,22.1
2016-02-20T03:09:18.290Z,22.1
2016-02-20T03:10:19.433Z,22.1
2016-02-20T03:11:17.842Z,22.1
2016-02-20T03:12:16.377Z,22.1
2016-02-20T03:13:14.910Z,22.1
2016-02-20T03:14:13.554Z,22.1
2016-02-20T03:15:12.087Z,22.1
2016-02-20T03:16:10.497Z,22.1
2016-02-20T03:17:09.030Z,22.1
2016-02-20T03:18:07.674Z,22.1
2016-02-20T03:19:06.145Z,22.1
2016-02-20T03:20:07.148Z,22.1
2016-02-20T03:21:05.682Z,22.1
2016-02-20T03:22:04.356Z,22.1
2016-02-20T03:23:02.762Z,22.1
2016-02-20T03:24:01.281Z,22.1
2016-02-20T03:24:59.800Z,22.1
2016-02-20T03:25:58.349Z,22.1
2016-02-20T03:26:56.868Z,22.1
2016-02-20T03:27:55.402Z,22.1
2016-02-20T03:28:53.982Z,22.1
2016-02-20T03:29:55.000Z,22.1
2016-02-20T03:30:53.519Z,22.1
2016-02-20T03:31:52.052Z,22.1
2016-02-20T03:32:50.586Z,22.1
2016-02-20T03:33:49.120Z,22.1
2016-02-20T03:34:47.779Z,22.1
2016-02-20T03:35:46.298Z,22.1
2016-02-20T03:36:44.707Z,22.1
2016-02-20T03:37:43.240Z,22.1
2016-02-20T03:38:41.822Z,22.1
2016-02-20T03:39:42.949Z,22.1
2016-02-20T03:40:41.359Z,22.1
2016-02-20T03:41:39.892Z,22.1
2016-02-20T03:42:38.426Z,22.1
2016-02-20T03:43:36.944Z,22.1
2016-02-20T03:44:35.478Z,22.1
2016-02-20T03:45:34.012Z,22.1
2016-02-20T03:46:32.686Z,22.1
2016-02-20T03:47:31.080Z,22.1
2016-02-20T03:48:29.661Z,22.1
2016-02-20T03:49:30.805Z,22.1
2016-02-20T03:50:29.197Z,22.1
2016-02-20T03:51:27.746Z,22.1
2016-02-20T03:52:26.266Z,22.1
2016-02-20T03:53:24.799Z,22.1
2016-02-20T03:54:23.349Z,22.1
2016-02-20T03:55:21.852Z,22.1
2016-02-20T03:56:20.510Z,22.1
2016-02-20T03:57:18.919Z,22.1
2016-02-20T03:58:17.625Z,22.1
2016-02-20T03:59:18.643Z,22.1
2016-02-20T04:00:17.162Z,22.1
2016-02-20T04:01:15.571Z,22.1
2016-02-20T04:02:14.230Z,22.1
2016-02-20T04:03:12.639Z,22.1
2016-02-20T04:04:11.173Z,22.1
2016-02-20T04:05:09.815Z,22.1
2016-02-20T04:06:08.222Z,22.1
2016-02-20T04:07:06.756Z,22.1
2016-02-20T04:08:05.462Z,22.1
2016-02-20T04:09:06.356Z,22.1
2016-02-20T04:10:04.999Z,22.1
2016-02-20T04:11:03.423Z,22.1
2016-02-20T04:12:01.957Z,22.1
2016-02-20T04:13:00.475Z,22.1
2016-02-20T04:13:59.134Z,22.1
2016-02-20T04:14:57.544Z,22.1
2016-02-20T04:15:56.092Z,22.1
2016-02-20T04:16:54.720Z,22.1
2016-02-20T04:17:53.192Z,22.1
2016-02-20T04:18:54.195Z,22.1
2016-02-20T04:19:52.853Z,22.1
2016-02-20T04:20:51.263Z,22.1
2016-02-20T04:21:49.906Z,22.1
2016-02-20T04:22:48.440Z,22.1
2016-02-20T04:23:46.849Z,22.1
2016-02-20T04:24:45.383Z,22.1
2016-02-20T04:25:43.932Z,22.1
2016-02-20T04:26:42.435Z,22.1
2016-02-20T04:27:41.015Z,22.1
2016-02-20T04:28:42.035Z,22.1
2016-02-20T04:29:40.568Z,22.1
2016-02-20T04:30:39.102Z,22.1
2016-02-20T04:31:37.635Z,22.1
2016-02-20T04:32:36.154Z,22.1
2016-02-20T04:33:34.798Z,22.1
2016-02-20T04:34:33.238Z,22.1
2016-02-20T04:35:31.865Z,22.1
2016-02-20T04:36:30.274Z,22.1
2016-02-20T04:37:28.855Z,22.1
2016-02-20T04:38:29.984Z,22.1
2016-02-20T04:39:28.517Z,22.1
2016-02-20T04:40:26.926Z,22.1
2016-02-20T04:41:25.585Z,22.1
2016-02-20T04:42:24.009Z,22
2016-02-20T04:43:22.543Z,22.1
2016-02-20T04:44:21.062Z,22
2016-02-20T04:45:19.596Z,22
2016-02-20T04:46:18.239Z,22
2016-02-20T04:47:16.710Z,22
2016-02-20T04:48:17.839Z,22
2016-02-20T04:49:16.388Z,22
2016-02-20T04:50:14.781Z,22
2016-02-20T04:51:13.297Z,22
2016-02-20T04:52:11.831Z,22
2016-02-20T04:53:10.364Z,22
2016-02-20T04:54:09.024Z,22
2016-02-20T04:55:07.416Z,22.1
2016-02-20T04:56:06.075Z,22.1
2016-02-20T04:57:04.657Z,22
2016-02-20T04:58:05.660Z,22.1
2016-02-20T04:59:04.443Z,22.1
2016-02-20T05:00:03.102Z,22.1
2016-02-20T05:01:01.886Z,22
2016-02-20T05:02:00.702Z,22
2016-02-20T05:02:59.219Z,22
2016-02-20T05:03:57.988Z,22
2016-02-20T05:04:56.882Z,22.1
2016-02-20T05:05:55.540Z,22.1
2016-02-20T05:06:54.512Z,22
2016-02-20T05:07:55.514Z,22
2016-02-20T05:08:54.189Z,22
2016-02-20T05:09:52.972Z,22.1
2016-02-20T05:10:51.881Z,22.1
2016-02-20T05:11:50.541Z,22.1
2016-02-20T05:12:49.309Z,22.1
2016-02-20T05:13:48.092Z,22.1
2016-02-20T05:14:46.893Z,22.1
2016-02-20T05:15:45.676Z,22
2016-02-20T05:16:44.507Z,22.1
2016-02-20T05:17:45.525Z,22
2016-02-20T05:18:44.309Z,22.1
2016-02-20T05:19:42.844Z,22
2016-02-20T05:20:41.377Z,22.1
2016-02-20T05:21:39.896Z,22.1
2016-02-20T05:22:38.430Z,22.1
2016-02-20T05:23:36.963Z,22.1
2016-02-20T05:24:35.483Z,22
2016-02-20T05:25:34.406Z,22
2016-02-20T05:26:33.003Z,22.1
2016-02-20T05:27:33.990Z,22
2016-02-20T05:28:32.789Z,22
2016-02-20T05:29:31.214Z,22
2016-02-20T05:30:29.716Z,22
2016-02-20T05:31:28.376Z,22
2016-02-20T05:32:26.769Z,22
2016-02-20T05:33:25.552Z,22.1
2016-02-20T05:34:24.337Z,22
2016-02-20T05:35:23.121Z,22
2016-02-20T05:36:21.967Z,22
2016-02-20T05:37:23.095Z,22
2016-02-20T05:38:21.754Z,22
2016-02-20T05:39:20.554Z,22
2016-02-20T05:40:19.446Z,22
2016-02-20T05:41:18.090Z,22.1
2016-02-20T05:42:16.890Z,22.1
2016-02-20T05:43:15.671Z,22
2016-02-20T05:44:14.454Z,22
2016-02-20T05:45:13.364Z,22
2016-02-20T05:46:12.085Z,22
2016-02-20T05:47:13.197Z,22
2016-02-20T05:48:11.872Z,22
2016-02-20T05:49:10.764Z,22
2016-02-20T05:50:09.565Z,22.1
2016-02-20T05:51:08.223Z,22
2016-02-20T05:52:07.117Z,22
2016-02-20T05:53:05.917Z,22.1
2016-02-20T05:54:04.325Z,22
2016-02-20T05:55:02.844Z,22
2016-02-20T05:56:01.706Z,22
2016-02-20T05:57:02.694Z,22.1
2016-02-20T05:58:01.602Z,22
2016-02-20T05:59:00.260Z,22
2016-02-20T05:59:59.060Z,22
2016-02-20T06:00:57.813Z,22
2016-02-20T06:01:56.721Z,22
2016-02-20T06:02:55.522Z,22
2016-02-20T06:03:54.180Z,22
2016-02-20T06:04:52.949Z,22
2016-02-20T06:05:51.904Z,22
2016-02-20T06:06:52.798Z,22
2016-02-20T06:07:51.582Z,22
2016-02-20T06:08:50.459Z,22.1
2016-02-20T06:09:49.134Z,22
2016-02-20T06:10:47.934Z,22.1
2016-02-20T06:11:46.717Z,22
2016-02-20T06:12:45.471Z,22.1
2016-02-20T06:13:44.254Z,22.1
2016-02-20T06:14:43.038Z,22.1
2016-02-20T06:15:41.884Z,22.1
2016-02-20T06:16:42.887Z,22.1
2016-02-20T06:17:41.671Z,22.1
2016-02-20T06:18:40.564Z,22.1
2016-02-20T06:19:39.348Z,22.1
2016-02-20T06:20:38.039Z,22.1
2016-02-20T06:21:36.806Z,22
2016-02-20T06:22:35.591Z,22
2016-02-20T06:23:34.359Z,22.1
2016-02-20T06:24:33.284Z,22
2016-02-20T06:25:32.005Z,22.1
2016-02-20T06:26:33.008Z,22.1
2016-02-20T06:27:31.792Z,22
2016-02-20T06:28:30.560Z,22.1
2016-02-20T06:29:29.360Z,22
2016-02-20T06:30:28.144Z,22
2016-02-20T06:31:26.928Z,22
2016-02-20T06:32:25.711Z,22
2016-02-20T06:33:24.480Z,22.1
2016-02-20T06:34:23.279Z,22.1
2016-02-20T06:35:22.126Z,22.1
2016-02-20T06:36:23.143Z,22.1
2016-02-20T06:37:21.913Z,22.1
2016-02-20T06:38:20.681Z,22.1
2016-02-20T06:39:19.605Z,22.1
2016-02-20T06:40:18.248Z,22.1
2016-02-20T06:41:17.029Z,22.1
2016-02-20T06:42:15.939Z,22.1
2016-02-20T06:43:14.598Z,22.1
2016-02-20T06:44:13.507Z,22.1
2016-02-20T06:45:12.229Z,22.1
2016-02-20T06:46:13.231Z,22.1
2016-02-20T06:47:12.123Z,22.1
2016-02-20T06:48:11.048Z,22.1
2016-02-20T06:49:09.848Z,22
2016-02-20T06:50:08.742Z,22.1
2016-02-20T06:51:07.400Z,22.1
2016-02-20T06:52:06.200Z,22.1
2016-02-20T06:53:04.969Z,22.1
2016-02-20T06:54:03.767Z,22.1
2016-02-20T06:55:02.615Z,22
2016-02-20T06:56:03.727Z,22
2016-02-20T06:57:02.386Z,22.1
2016-02-20T06:58:01.294Z,22
2016-02-20T06:58:59.953Z,22.1
2016-02-20T06:59:58.863Z,22
2016-02-20T07:00:57.536Z,22
2016-02-20T07:01:56.289Z,22.1
2016-02-20T07:02:55.074Z,22.1
2016-02-20T07:03:54.138Z,22.1
2016-02-20T07:04:52.969Z,22
2016-02-20T07:05:54.097Z,22.1
2016-02-20T07:06:52.740Z,22.1
2016-02-20T07:07:51.524Z,22
2016-02-20T07:08:50.557Z,22.1
2016-02-20T07:09:49.358Z,22
2016-02-20T07:10:48.126Z,22.1
2016-02-20T07:11:47.034Z,22.1
2016-02-20T07:12:45.835Z,22.1
2016-02-20T07:13:44.478Z,22.1
2016-02-20T07:14:43.324Z,22.1
2016-02-20T07:15:44.327Z,22.1
2016-02-20T07:16:43.220Z,22.1
2016-02-20T07:17:42.004Z,22.1
2016-02-20T07:18:40.678Z,22.1
2016-02-20T07:19:39.479Z,22.1
2016-02-20T07:20:38.247Z,22
2016-02-20T07:21:37.014Z,22.1
2016-02-20T07:22:35.799Z,22.1
2016-02-20T07:23:34.958Z,22.1
2016-02-20T07:24:34.055Z,22.1
2016-02-20T07:25:35.058Z,22.1
2016-02-20T07:26:33.981Z,22.1
2016-02-20T07:28:32.049Z,22
2016-02-20T07:29:31.115Z,22.1
2016-02-20T07:30:30.117Z,22.1
2016-02-20T07:31:29.166Z,22.1
2016-02-20T07:32:28.201Z,22.1
2016-02-20T07:33:27.360Z,22.1
2016-02-20T07:34:26.441Z,22.1
2016-02-20T07:35:27.334Z,22
2016-02-20T07:36:26.494Z,22.1
2016-02-20T07:37:25.402Z,22.1
2016-02-20T07:38:24.560Z,22.1
2016-02-20T07:39:23.485Z,22.1
2016-02-20T07:40:22.519Z,22.1
2016-02-20T07:41:21.553Z,22.1
2016-02-20T07:42:20.618Z,22
2016-02-20T07:43:19.746Z,22.1
2016-02-20T07:44:18.843Z,22.1
2016-02-20T07:45:19.720Z,22.1
2016-02-20T07:46:18.879Z,22.1
2016-02-20T07:47:17.801Z,22.1
2016-02-20T07:48:16.945Z,22.1
2016-02-20T07:49:15.869Z,22.1
2016-02-20T07:50:14.918Z,22
2016-02-20T07:51:13.812Z,22.1
2016-02-20T07:52:12.470Z,22.1
2016-02-20T07:53:11.630Z,22.1
2016-02-20T07:54:10.460Z,22.1
2016-02-20T07:55:11.464Z,22.1
2016-02-20T07:56:10.513Z,22.1
2016-02-20T07:57:09.437Z,22.1
2016-02-20T07:58:08.456Z,22.1
2016-02-20T07:59:07.630Z,22.1
2016-02-20T08:00:06.539Z,22.1
2016-02-20T08:01:05.572Z,22
2016-02-20T08:02:04.732Z,22.1
2016-02-20T08:03:03.641Z,22.1
2016-02-20T08:04:02.737Z,22.1
2016-02-20T08:05:03.772Z,22.1
2016-02-20T08:06:02.805Z,22
2016-02-20T08:07:01.824Z,22.1
2016-02-20T08:08:00.858Z,22.1
2016-02-20T08:09:00.016Z,22.1
2016-02-20T08:09:59.050Z,22.1
2016-02-20T08:10:57.975Z,22.1
2016-02-20T08:11:57.009Z,22.1
2016-02-20T08:12:56.043Z,22.1
2016-02-20T08:13:55.139Z,22.1
2016-02-20T08:14:56.267Z,22.1
2016-02-20T08:15:55.301Z,22.1
2016-02-20T08:16:54.225Z,22.1
2016-02-20T08:17:53.260Z,22
2016-02-20T08:18:52.293Z,22
2016-02-20T08:19:51.327Z,22.1
2016-02-20T08:20:50.486Z,22
2016-02-20T08:21:49.520Z,22.1
2016-02-20T08:22:48.554Z,22.1
2016-02-20T08:23:47.525Z,22.1
2016-02-20T08:24:48.528Z,22.1
2016-02-20T08:25:47.562Z,22.1
2016-02-20T08:26:46.596Z,22.1
2016-02-20T08:27:45.756Z,22.1
2016-02-20T08:28:44.680Z,22.1
2016-02-20T08:29:43.838Z,22.1
2016-02-20T08:30:42.747Z,22.1
2016-02-20T08:31:41.906Z,22.1
2016-02-20T08:32:40.816Z,22.1
2016-02-20T08:33:39.911Z,22.1
2016-02-20T08:34:40.930Z,22.1
2016-02-20T08:35:39.964Z,22.1
2016-02-20T08:36:38.982Z,22.1
2016-02-20T08:37:38.033Z,22.1
2016-02-20T08:38:37.064Z,22.1
2016-02-20T08:39:36.087Z,22.1
2016-02-20T08:40:35.111Z,22.1
2016-02-20T08:41:34.133Z,22.1
2016-02-20T08:42:33.186Z,22.1
2016-02-20T08:43:32.242Z,22.1
2016-02-20T08:44:33.255Z,22.1
2016-02-20T08:45:32.286Z,22.1
2016-02-20T08:46:31.315Z,22.1
2016-02-20T08:47:30.469Z,22.1
2016-02-20T08:48:29.374Z,22.1
2016-02-20T08:49:28.423Z,22.1
2016-02-20T08:50:27.440Z,22.1
2016-02-20T08:51:26.597Z,22.1
2016-02-20T08:52:25.504Z,22.1
2016-02-20T08:53:24.725Z,22.1
2016-02-20T08:54:25.743Z,22.1
2016-02-20T08:55:24.651Z,22.1
2016-02-20T08:56:23.685Z,22.1
2016-02-20T08:57:22.734Z,22.1
2016-02-20T08:58:21.752Z,22.1
2016-02-20T08:59:20.786Z,22.1
2016-02-20T09:00:19.849Z,22.1
2016-02-20T09:01:18.976Z,22.1
2016-02-20T09:02:18.024Z,22.1
2016-02-20T09:03:16.996Z,22.1
2016-02-20T09:04:18.014Z,22.1
2016-02-20T09:05:17.032Z,22.1
2016-02-20T09:06:16.066Z,22.1
2016-02-20T09:07:15.100Z,22.1
2016-02-20T09:08:14.134Z,22.1
2016-02-20T09:09:13.168Z,22.1
2016-02-20T09:10:12.233Z,22.1
2016-02-20T09:11:11.377Z,22.1
2016-02-20T09:12:10.286Z,22.1
2016-02-20T09:13:09.382Z,22.1
2016-02-20T09:14:10.384Z,22.1
2016-02-20T09:15:09.528Z,22.1
2016-02-20T09:16:08.452Z,22.1
2016-02-20T09:17:07.502Z,22.1
2016-02-20T09:18:06.551Z,22.1
2016-02-20T09:19:05.569Z,22.1
2016-02-20T09:20:04.713Z,22.1
2016-02-20T09:21:03.637Z,22.1
2016-02-20T09:22:02.687Z,22.1
2016-02-20T09:23:01.877Z,22.1
2016-02-20T09:24:02.770Z,22.1
2016-02-20T09:25:01.915Z,22.1
2016-02-20T09:26:00.838Z,22.1
2016-02-20T09:26:59.872Z,22.1
2016-02-20T09:27:58.907Z,22.1
2016-02-20T09:28:57.971Z,22.1
2016-02-20T09:29:56.990Z,22.1
2016-02-20T09:30:56.134Z,22.1
2016-02-20T09:31:55.073Z,22.1
2016-02-20T09:33:55.297Z,22.1
2016-02-20T09:34:54.191Z,22.1
2016-02-20T09:35:53.225Z,22.2
2016-02-20T09:36:52.259Z,22.2
2016-02-20T09:37:51.417Z,22.1
2016-02-20T09:38:50.452Z,22.1
2016-02-20T09:39:49.517Z,22.1
2016-02-20T09:40:48.410Z,22.1
2016-02-20T09:41:47.569Z,22.1
2016-02-20T09:42:46.681Z,22.1
2016-02-20T09:43:47.543Z,22.1
2016-02-20T09:44:46.577Z,22.1
2016-02-20T09:45:45.611Z,22.1
2016-02-20T09:46:44.769Z,22.2
2016-02-20T09:47:43.679Z,22.1
2016-02-20T09:48:42.838Z,22.2
2016-02-20T09:49:41.871Z,22.1
2016-02-20T09:50:40.796Z,22.1
2016-02-20T09:51:39.830Z,22.1
2016-02-20T09:52:38.927Z,22.1
2016-02-20T09:53:39.929Z,22.1
2016-02-20T09:54:38.963Z,22.1
2016-02-20T09:55:38.013Z,22.1
2016-02-20T09:56:37.140Z,22.2
2016-02-20T09:57:36.065Z,22.2
2016-02-20T09:58:35.099Z,22.2
2016-02-20T09:59:34.133Z,22.2
2016-02-20T10:00:33.168Z,22.1
2016-02-20T10:01:32.201Z,22.2
2016-02-20T10:02:31.423Z,22.1
2016-02-20T10:03:32.301Z,22.1
2016-02-20T10:04:31.350Z,22.2
2016-02-20T10:05:30.493Z,22.1
2016-02-20T10:06:29.417Z,22.1
2016-02-20T10:07:28.451Z,22.1
2016-02-20T10:08:27.485Z,22.2
2016-02-20T10:09:26.520Z,22.2
2016-02-20T10:10:25.551Z,22.1
2016-02-20T10:11:24.709Z,22.2
2016-02-20T10:12:23.791Z,22.2
2016-02-20T10:13:24.825Z,22.1
2016-02-20T10:14:23.717Z,22.2
2016-02-20T10:15:22.752Z,22.2
2016-02-20T10:16:21.801Z,22.2
2016-02-20T10:17:20.835Z,22.1
2016-02-20T10:18:19.885Z,22.2
2016-02-20T10:19:18.919Z,22.2
2016-02-20T10:20:17.938Z,22.1
2016-02-20T10:21:16.986Z,22.2
2016-02-20T10:22:16.176Z,22.2
2016-02-20T10:23:17.071Z,22.1
2016-02-20T10:24:16.104Z,22.2
2016-02-20T10:25:15.137Z,22.2
2016-02-20T10:26:14.312Z,22.1
2016-02-20T10:27:13.331Z,22.2
2016-02-20T10:28:12.240Z,22.2
2016-02-20T10:29:11.274Z,22.1
2016-02-20T10:30:10.339Z,22.1
2016-02-20T10:31:09.357Z,22.2
2016-02-20T10:32:08.438Z,22.2
2016-02-20T10:33:09.565Z,22.1
2016-02-20T10:34:08.490Z,22.1
2016-02-20T10:35:07.523Z,22.1
2016-02-20T10:36:06.558Z,22.1
2016-02-20T10:38:04.657Z,22.2
2016-02-20T10:39:03.659Z,22.2
2016-02-20T10:40:02.694Z,22.2
2016-02-20T10:41:01.728Z,22.2
2016-02-20T10:42:00.825Z,22.2
2016-02-20T10:43:01.842Z,22.1
2016-02-20T10:44:00.986Z,22.1
2016-02-20T10:44:59.911Z,22.2
2016-02-20T10:45:59.085Z,22.2
2016-02-20T10:46:57.978Z,22.1
2016-02-20T10:47:57.028Z,22.2
2016-02-20T10:48:56.046Z,22.1
2016-02-20T10:49:55.080Z,22.2
2016-02-20T10:50:54.130Z,22.2
2016-02-20T10:51:53.319Z,22.2
2016-02-20T10:52:54.213Z,22.2
2016-02-20T10:53:53.371Z,22.2
2016-02-20T10:54:52.281Z,22.2
2016-02-20T10:55:51.330Z,22.2
2016-02-20T10:56:50.521Z,22.2
2016-02-20T10:57:49.399Z,22.1
2016-02-20T10:58:48.432Z,22.2
2016-02-20T10:59:47.465Z,22.2
2016-02-20T11:00:46.609Z,22.2
2016-02-20T11:01:45.596Z,22.3
2016-02-20T11:02:46.615Z,22.3
2016-02-20T11:03:45.649Z,22.3
2016-02-20T11:04:44.809Z,22.3
2016-02-20T11:05:43.717Z,22.4
2016-02-20T11:06:42.751Z,22.4
2016-02-20T11:07:42.050Z,22.5
2016-02-20T11:08:41.334Z,22.5
2016-02-20T11:09:40.618Z,22.5
2016-02-20T11:10:40.277Z,22.5
2016-02-20T11:11:39.781Z,22.5
2016-02-20T11:12:40.767Z,22.6
2016-02-20T11:13:40.317Z,22.6
2016-02-20T11:14:39.961Z,22.6
2016-02-20T11:15:39.494Z,22.7
2016-02-20T11:16:38.919Z,22.7
2016-02-20T11:17:38.469Z,22.7
2016-02-20T11:18:38.002Z,22.7
2016-02-20T11:19:37.567Z,22.7
2016-02-20T11:20:37.102Z,22.8
2016-02-20T11:21:36.697Z,22.8
2016-02-20T11:22:37.700Z,22.8
2016-02-20T11:23:37.500Z,22.8
2016-02-20T11:24:37.283Z,22.8
2016-02-20T11:25:36.833Z,22.8
2016-02-20T11:26:36.368Z,22.8
2016-02-20T11:27:36.073Z,22.7
2016-02-20T11:28:35.373Z,22.7
2016-02-20T11:29:34.485Z,22.6
2016-02-20T11:30:33.519Z,22.6
2016-02-20T11:31:32.722Z,22.5
2016-02-20T11:32:33.618Z,22.5
2016-02-20T11:33:32.774Z,22.4
2016-02-20T11:34:31.683Z,22.3
2016-02-20T11:35:30.826Z,22.3
2016-02-20T11:36:29.750Z,22.3
2016-02-20T11:37:28.800Z,22.1
2016-02-20T11:38:27.834Z,22.1
2016-02-20T11:39:26.868Z,22.1
2016-02-20T11:40:25.918Z,22
2016-02-20T11:41:24.984Z,21.9
2016-02-20T11:42:26.001Z,21.9
2016-02-20T11:43:25.286Z,21.8
2016-02-20T11:44:24.601Z,21.8
2016-02-20T11:45:23.869Z,21.7
2016-02-20T11:46:23.402Z,21.7
2016-02-20T11:47:22.967Z,21.6
2016-02-20T11:48:22.502Z,21.6
2016-02-20T11:49:22.036Z,21.5
2016-02-20T11:50:21.586Z,21.5
2016-02-20T11:51:21.182Z,21.4
2016-02-20T11:52:22.185Z,21.4
2016-02-20T11:53:21.734Z,21.4
2016-02-20T11:54:21.533Z,21.4
2016-02-20T11:55:21.583Z,21.3
2016-02-20T11:56:21.632Z,21.4
2016-02-20T11:57:21.682Z,21.5
2016-02-20T11:58:21.732Z,21.5
2016-02-20T11:59:21.781Z,21.5
2016-02-20T12:00:22.081Z,21.5
2016-02-20T12:01:22.459Z,21.6
2016-02-20T12:02:23.462Z,21.7
2016-02-20T12:03:24.010Z,21.7
2016-02-20T12:04:24.576Z,21.7
2016-02-20T12:05:25.126Z,21.8
2016-02-20T12:06:25.691Z,21.9
2016-02-20T12:07:26.241Z,21.9
2016-02-20T12:08:26.790Z,21.9
2016-02-20T12:09:27.356Z,22
2016-02-20T12:10:27.921Z,22
2016-02-20T12:11:28.517Z,22.1
2016-02-20T12:12:29.534Z,22.1
2016-02-20T12:13:29.834Z,22.2
2016-02-20T12:14:30.134Z,22.2
2016-02-20T12:15:30.434Z,22.3
2016-02-20T12:16:30.733Z,22.3
2016-02-20T12:17:30.784Z,22.3
2016-02-20T12:18:30.863Z,22.4
2016-02-20T12:19:30.898Z,22.4
2016-02-20T12:20:30.947Z,22.5
2016-02-20T12:21:31.090Z,22.5
2016-02-20T12:22:32.046Z,22.5
2016-02-20T12:23:32.096Z,22.5
2016-02-20T12:24:32.146Z,22.5
2016-02-20T12:25:32.211Z,22.6
2016-02-20T12:27:32.294Z,22.7
2016-02-20T12:28:32.344Z,22.7
2016-02-20T12:29:32.393Z,22.7
2016-02-20T12:30:32.443Z,22.7
2016-02-20T12:31:32.554Z,22.8
2016-02-20T12:32:33.557Z,22.8
2016-02-20T12:33:33.607Z,22.8
2016-02-20T12:34:33.657Z,22.9
2016-02-20T12:35:33.707Z,22.9
2016-02-20T12:36:33.757Z,22.9
2016-02-20T12:37:33.821Z,22.9
2016-02-20T12:38:33.855Z,22.9
2016-02-20T12:39:33.905Z,22.9
2016-02-20T12:40:33.954Z,22.9
2016-02-20T12:41:34.051Z,22.9
2016-02-20T12:42:35.069Z,22.9
2016-02-20T12:43:35.103Z,22.9
2016-02-20T12:44:35.153Z,22.9
2016-02-20T12:45:35.203Z,22.9
2016-02-20T12:46:35.236Z,23
2016-02-20T12:48:35.350Z,22.9
2016-02-20T12:49:35.400Z,22.9
2016-02-20T12:50:35.434Z,23
2016-02-20T12:51:35.656Z,23
2016-02-20T12:52:36.549Z,22.9
2016-02-20T12:53:36.349Z,23
2016-02-20T12:54:36.148Z,22.9
2016-02-20T12:55:35.682Z,22.9
2016-02-20T12:56:35.216Z,22.9
2016-02-20T12:57:34.516Z,22.8
2016-02-20T12:58:33.800Z,22.7
2016-02-20T12:59:33.083Z,22.6
2016-02-20T13:00:32.132Z,22.6
2016-02-20T13:01:31.214Z,22.5
2016-02-20T13:02:32.216Z,22.4
2016-02-20T13:03:31.251Z,22.3
2016-02-20T13:04:30.285Z,22.3
2016-02-20T13:05:29.568Z,22.2
2016-02-20T13:06:28.868Z,22.1
2016-02-20T13:07:28.215Z,22
2016-02-20T13:08:27.701Z,21.9
2016-02-20T13:09:27.251Z,21.9
2016-02-20T13:10:26.785Z,21.9
2016-02-20T13:11:26.662Z,21.9
2016-02-20T13:12:27.650Z,21.9
2016-02-20T13:13:27.698Z,21.9
2016-02-20T13:14:27.748Z,21.9
2016-02-20T13:15:28.064Z,22
2016-02-20T13:16:28.614Z,22
2016-02-20T13:17:29.164Z,22
2016-02-20T13:18:29.728Z,22